Time;durP1;ratioP1;P1;durP2;ratioP2;P2;SDS_P1;SDS_P2;PMS_P1;PMS_P2;Temp;Humidity;BMP_temperature;BMP_pressure;BME280_temperature;BME280_humidity;BME280_pressure;Samples;Min_cycle;Max_cycle;Signal;HPM_P1;HPM_P2
2023/04/03 00:00:14;;;;;;;35.78;30.35;;;2.50;88.80;;;;;;4987971;28;20026;-73
2023/04/03 00:02:40;;;;;;;38.30;32.08;;;2.50;88.80;;;;;;5003324;28;20401;-73
2023/04/03 00:05:06;;;;;;;39.63;31.42;;;2.50;88.90;;;;;;4996364;28;20033;-73
2023/04/03 00:07:32;;;;;;;39.58;31.35;;;2.50;88.90;;;;;;5006252;28;20108;-72
2023/04/03 00:09:58;;;;;;;40.92;33.25;;;2.50;89.00;;;;;;5003844;28;20049;-73
2023/04/03 00:12:23;;;;;;;36.17;30.27;;;2.50;89.20;;;;;;5009653;28;20513;-72
2023/04/03 00:14:49;;;;;;;35.33;30.80;;;2.50;89.10;;;;;;5006079;28;20329;-74
2023/04/03 00:17:15;;;;;;;40.88;31.80;;;2.50;89.10;;;;;;5005467;28;20046;-73
2023/04/03 00:19:41;;;;;;;35.10;30.05;;;2.50;89.10;;;;;;5010099;28;20058;-75
2023/04/03 00:22:06;;;;;;;43.00;32.13;;;2.50;89.10;;;;;;5015070;28;20570;-75
2023/04/03 00:24:32;;;;;;;47.63;35.50;;;2.50;89.10;;;;;;5011221;28;20029;-75
2023/04/03 00:26:58;;;;;;;50.58;37.10;;;2.40;89.00;;;;;;5009086;28;20483;-73
2023/04/03 00:29:23;;;;;;;44.60;33.63;;;2.40;88.90;;;;;;5005483;28;20379;-74
2023/04/03 00:31:49;;;;;;;41.05;31.10;;;2.40;88.90;;;;;;5008867;28;20105;-74
2023/04/03 00:34:15;;;;;;;39.42;31.45;;;2.40;89.00;;;;;;5010732;28;20025;-74
2023/04/03 00:36:41;;;;;;;38.05;31.77;;;2.40;89.00;;;;;;5009653;28;20053;-74
2023/04/03 00:39:06;;;;;;;35.40;30.10;;;2.40;88.90;;;;;;5007876;28;20053;-73
2023/04/03 00:41:32;;;;;;;36.38;28.85;;;2.40;88.80;;;;;;5012818;28;20033;-74
2023/04/03 00:43:58;;;;;;;34.80;27.85;;;2.40;89.00;;;;;;5008807;28;20112;-74
2023/04/03 00:46:24;;;;;;;36.10;27.92;;;2.50;88.90;;;;;;5022624;28;21549;-74
2023/04/03 00:48:50;;;;;;;36.97;28.23;;;2.60;89.00;;;;;;5009574;28;20478;-74
2023/04/03 00:51:24;;;;;;;37.10;27.48;;;2.60;89.00;;;;;;5009396;28;20048;-74
2023/04/03 00:53:58;;;;;;;31.65;26.60;;;2.60;89.10;;;;;;5005707;28;20120;-75
2023/04/03 00:56:26;;;;;;;33.10;25.70;;;2.60;89.10;;;;;;5006941;28;20046;-73
2023/04/03 00:59:01;;;;;;;31.30;24.33;;;2.60;89.20;;;;;;5007679;28;20466;-73
2023/04/03 01:01:29;;;;;;;30.65;24.40;;;2.60;89.30;;;;;;5011728;28;20116;-73
2023/04/03 01:03:55;;;;;;;26.63;22.55;;;2.70;89.40;;;;;;5009727;28;20034;-74
2023/04/03 01:06:26;;;;;;;27.17;21.80;;;2.80;89.30;;;;;;5024537;28;20045;-76
2023/04/03 01:08:52;;;;;;;28.35;21.40;;;2.80;89.10;;;;;;5010073;28;20109;-74
2023/04/03 01:11:20;;;;;;;27.65;21.98;;;2.80;88.90;;;;;;5002482;28;20038;-74
2023/04/03 01:13:46;;;;;;;26.17;21.10;;;2.80;88.70;;;;;;5008921;28;20056;-74
2023/04/03 01:16:12;;;;;;;26.05;20.63;;;2.90;88.40;;;;;;5007343;28;20042;-74
2023/04/03 01:18:40;;;;;;;24.70;19.50;;;2.90;88.30;;;;;;5009793;28;20038;-72
2023/04/03 01:21:16;;;;;;;26.13;19.90;;;2.90;88.20;;;;;;5007482;28;20453;-75
2023/04/03 01:24:01;;;;;;;26.77;19.70;;;2.90;87.80;;;;;;5004885;28;20026;-73
2023/04/03 01:26:28;;;;;;;23.63;19.05;;;3.00;87.60;;;;;;5008347;28;20042;-73
2023/04/03 01:28:55;;;;;;;23.02;17.70;;;2.90;87.40;;;;;;5009737;28;20112;-73
2023/04/03 01:31:53;;;;;;;24.92;18.67;;;3.00;87.20;;;;;;5006470;28;20034;-77
2023/04/03 01:34:19;;;;;;;23.83;18.55;;;3.00;87.10;;;;;;5006843;28;20112;-73
2023/04/03 01:36:45;;;;;;;24.08;17.90;;;3.00;86.80;;;;;;4991710;28;20037;-73
2023/04/03 01:39:11;;;;;;;22.67;17.92;;;2.90;86.70;;;;;;5008726;28;20030;-75
2023/04/03 01:41:37;;;;;;;23.77;17.67;;;2.90;86.50;;;;;;5005777;28;20030;-73
2023/04/03 01:44:03;;;;;;;21.90;17.50;;;2.90;86.60;;;;;;4982455;28;20030;-77
2023/04/03 01:46:29;;;;;;;25.10;18.88;;;2.90;86.60;;;;;;5008749;28;20030;-72
2023/04/03 01:48:55;;;;;;;21.50;16.60;;;2.90;86.50;;;;;;5011032;28;20409;-73
2023/04/03 01:51:21;;;;;;;25.90;18.38;;;2.90;86.50;;;;;;5011399;28;20487;-76
2023/04/03 01:53:47;;;;;;;22.88;17.02;;;2.80;86.60;;;;;;5007656;28;20092;-73
2023/04/03 01:56:12;;;;;;;22.00;16.85;;;2.90;86.50;;;;;;5013367;28;20457;-75
2023/04/03 01:58:38;;;;;;;21.10;16.85;;;2.80;86.40;;;;;;5008651;28;20033;-74
2023/04/03 02:01:05;;;;;;;25.75;16.95;;;2.80;86.40;;;;;;5004863;28;20034;-73
2023/04/03 02:03:30;;;;;;;21.98;15.73;;;2.80;86.30;;;;;;5002599;28;20492;-73
2023/04/03 02:05:56;;;;;;;23.27;17.23;;;2.80;86.40;;;;;;4992145;28;20035;-73
2023/04/03 02:08:22;;;;;;;19.73;15.27;;;2.80;86.40;;;;;;5002961;28;20037;-73
2023/04/03 02:10:49;;;;;;;21.63;15.88;;;2.70;86.30;;;;;;5010281;28;20032;-76
2023/04/03 02:13:15;;;;;;;20.50;14.90;;;2.80;86.40;;;;;;5010108;28;20065;-73
2023/04/03 02:15:41;;;;;;;18.77;13.85;;;2.80;86.40;;;;;;5010982;28;20045;-73
2023/04/03 02:18:08;;;;;;;19.27;14.40;;;2.70;86.30;;;;;;5006812;28;20033;-72
2023/04/03 02:20:33;;;;;;;16.75;13.43;;;2.80;86.30;;;;;;5004653;28;20036;-74
2023/04/03 02:23:00;;;;;;;19.02;13.00;;;2.80;86.20;;;;;;4994806;28;20113;-73
2023/04/03 02:25:25;;;;;;;20.08;14.73;;;2.80;86.00;;;;;;5008167;28;20033;-72
2023/04/03 02:27:51;;;;;;;18.13;12.63;;;2.80;85.80;;;;;;5006882;28;20038;-75
2023/04/03 02:30:17;;;;;;;20.92;13.90;;;2.80;85.90;;;;;;5006531;28;20096;-77
2023/04/03 02:32:44;;;;;;;21.20;14.18;;;2.80;85.80;;;;;;4989699;28;20053;-73
2023/04/03 02:35:11;;;;;;;19.98;14.15;;;2.80;85.50;;;;;;5006575;28;20026;-73
2023/04/03 02:37:37;;;;;;;18.08;13.85;;;2.80;85.40;;;;;;5006431;28;20088;-73
2023/04/03 02:40:04;;;;;;;18.70;13.65;;;2.80;85.30;;;;;;4999938;28;20043;-72
2023/04/03 02:42:30;;;;;;;17.67;12.55;;;2.80;85.30;;;;;;5012453;28;20131;-77
2023/04/03 02:44:56;;;;;;;18.88;14.25;;;2.80;85.30;;;;;;5003759;28;20137;-73
2023/04/03 02:47:21;;;;;;;18.27;13.45;;;2.70;85.40;;;;;;5014141;28;20061;-73
2023/04/03 02:49:47;;;;;;;20.55;14.40;;;2.70;85.60;;;;;;5007128;28;20097;-75
2023/04/03 02:52:14;;;;;;;20.58;14.50;;;2.60;85.70;;;;;;5006946;28;20072;-73
2023/04/03 02:54:40;;;;;;;20.65;15.27;;;2.70;85.80;;;;;;5006358;28;20096;-74
2023/04/03 02:57:08;;;;;;;21.02;15.45;;;2.60;85.80;;;;;;5008890;28;20038;-73
2023/04/03 02:59:35;;;;;;;20.35;14.93;;;2.60;85.90;;;;;;5004103;28;20689;-73
2023/04/03 03:02:01;;;;;;;19.10;13.60;;;2.60;86.00;;;;;;5006296;28;20041;-74
2023/04/03 03:04:26;;;;;;;22.75;13.77;;;2.60;86.20;;;;;;5008084;28;20639;-71
2023/04/03 03:06:52;;;;;;;23.63;14.82;;;2.60;86.30;;;;;;5008587;28;20045;-75
2023/04/03 03:09:18;;;;;;;20.25;14.25;;;2.60;86.30;;;;;;5007571;28;20034;-73
2023/04/03 03:11:44;;;;;;;20.10;14.18;;;2.60;86.30;;;;;;5011530;28;20041;-74
2023/04/03 03:14:10;;;;;;;19.60;14.02;;;2.60;86.40;;;;;;5004129;28;20037;-73
2023/04/03 03:16:36;;;;;;;19.73;14.98;;;2.70;86.30;;;;;;4987245;28;20030;-76
2023/04/03 03:19:01;;;;;;;20.23;14.88;;;2.70;86.10;;;;;;5015459;28;20462;-74
2023/04/03 03:21:27;;;;;;;21.05;15.68;;;2.70;85.90;;;;;;4993525;28;20066;-74
2023/04/03 03:23:53;;;;;;;20.98;15.43;;;2.60;85.80;;;;;;5010500;28;20406;-73
2023/04/03 03:26:19;;;;;;;20.73;14.48;;;2.60;85.90;;;;;;5007048;28;20379;-78
2023/04/03 03:28:45;;;;;;;19.38;14.77;;;2.70;85.80;;;;;;4999136;28;20113;-73
2023/04/03 03:31:12;;;;;;;18.77;14.27;;;2.60;85.70;;;;;;4987273;28;20560;-74
2023/04/03 03:33:38;;;;;;;19.00;13.45;;;2.60;85.80;;;;;;5005747;28;20037;-75
2023/04/03 03:36:03;;;;;;;17.42;13.32;;;2.60;86.00;;;;;;5007236;28;20030;-72
2023/04/03 03:38:29;;;;;;;19.38;13.93;;;2.70;86.00;;;;;;5011497;28;20022;-73
2023/04/03 03:40:55;;;;;;;19.83;14.13;;;2.60;85.90;;;;;;5014415;28;20487;-72
2023/04/03 03:43:21;;;;;;;17.58;14.10;;;2.60;86.00;;;;;;5006210;28;20370;-72
2023/04/03 03:45:53;;;;;;;18.73;13.90;;;2.60;85.90;;;;;;5005916;28;20029;-73
2023/04/03 03:48:20;;;;;;;19.92;14.65;;;2.60;85.90;;;;;;5011434;28;20054;-73
2023/04/03 03:50:47;;;;;;;20.90;14.25;;;2.60;85.80;;;;;;5011464;28;20433;-73
2023/04/03 03:53:13;;;;;;;20.15;15.10;;;2.60;85.80;;;;;;5008849;28;20044;-73
2023/04/03 03:55:39;;;;;;;19.60;14.05;;;2.60;85.70;;;;;;5004777;28;20359;-71
2023/04/03 03:58:05;;;;;;;20.25;13.85;;;2.60;85.70;;;;;;4996755;28;20029;-73
2023/04/03 04:00:30;;;;;;;18.05;13.88;;;2.60;85.50;;;;;;4997149;28;20026;-76
2023/04/03 04:02:56;;;;;;;17.45;13.82;;;2.50;85.60;;;;;;5012820;28;20033;-73
2023/04/03 04:05:22;;;;;;;18.13;14.38;;;2.60;85.70;;;;;;5009101;28;20406;-73
2023/04/03 04:07:48;;;;;;;18.70;14.40;;;2.50;85.70;;;;;;5013488;28;20034;-73
2023/04/03 04:10:14;;;;;;;19.52;15.52;;;2.50;85.90;;;;;;5003365;28;20026;-72
2023/04/03 04:12:40;;;;;;;19.02;14.45;;;2.40;85.90;;;;;;5003868;28;20033;-73
2023/04/03 04:15:06;;;;;;;18.20;14.23;;;2.40;86.00;;;;;;5005650;28;20027;-74
2023/04/03 04:17:31;;;;;;;19.08;13.90;;;2.40;86.10;;;;;;5008452;28;20038;-73
2023/04/03 04:19:57;;;;;;;22.52;14.57;;;2.30;86.10;;;;;;5009899;28;20032;-73
2023/04/03 04:22:23;;;;;;;21.70;15.75;;;2.30;86.20;;;;;;4994954;28;20050;-75
2023/04/03 04:24:49;;;;;;;19.30;14.05;;;2.30;86.30;;;;;;5016460;28;20022;-73
2023/04/03 04:27:15;;;;;;;18.63;14.15;;;2.30;86.30;;;;;;5005794;28;20471;-74
2023/04/03 04:29:41;;;;;;;19.50;15.15;;;2.20;86.50;;;;;;5007350;28;20189;-76
2023/04/03 04:32:08;;;;;;;18.10;14.43;;;2.20;86.60;;;;;;5015319;28;20165;-75
2023/04/03 04:34:34;;;;;;;17.80;13.38;;;2.20;86.60;;;;;;5007870;28;20022;-73
2023/04/03 04:36:59;;;;;;;18.33;15.55;;;2.20;86.70;;;;;;4994293;28;20042;-74
2023/04/03 04:39:26;;;;;;;20.70;15.48;;;2.10;86.80;;;;;;4984259;28;20099;-73
2023/04/03 04:41:51;;;;;;;20.25;15.15;;;2.10;86.90;;;;;;5005970;28;20741;-74
2023/04/03 04:44:17;;;;;;;18.45;15.00;;;2.10;87.00;;;;;;5009842;28;20116;-73
2023/04/03 04:46:43;;;;;;;20.25;15.73;;;2.10;86.90;;;;;;5010206;28;20568;-73
2023/04/03 04:49:08;;;;;;;20.77;14.90;;;2.10;86.90;;;;;;5022670;28;20050;-73
2023/04/03 04:51:34;;;;;;;20.45;15.40;;;2.00;86.90;;;;;;5009243;28;20030;-72
2023/04/03 04:54:00;;;;;;;19.25;14.90;;;1.90;87.00;;;;;;5008857;28;20041;-73
2023/04/03 04:56:26;;;;;;;22.08;14.93;;;1.90;87.00;;;;;;5014764;28;20434;-72
2023/04/03 04:58:52;;;;;;;18.77;15.25;;;1.80;87.10;;;;;;5008839;28;20038;-74
2023/04/03 05:01:18;;;;;;;22.08;16.13;;;1.80;87.20;;;;;;4985843;28;20054;-75
2023/04/03 05:03:44;;;;;;;18.35;15.30;;;1.80;87.20;;;;;;5008685;28;20121;-74
2023/04/03 05:06:10;;;;;;;20.92;15.02;;;1.80;87.20;;;;;;4992867;28;20121;-73
2023/04/03 05:08:35;;;;;;;20.67;15.68;;;1.70;87.20;;;;;;5012692;28;20041;-73
2023/04/03 05:11:01;;;;;;;20.23;14.82;;;1.80;87.30;;;;;;4988219;28;20061;-73
2023/04/03 05:13:27;;;;;;;19.05;14.35;;;1.80;87.20;;;;;;4988713;28;20033;-73
2023/04/03 05:15:52;;;;;;;21.08;16.33;;;1.80;87.30;;;;;;5005873;28;20033;-72
2023/04/03 05:18:18;;;;;;;19.05;15.43;;;1.80;87.20;;;;;;5010097;28;20033;-74
2023/04/03 05:20:44;;;;;;;18.70;14.88;;;1.90;87.20;;;;;;5009550;28;20033;-73
2023/04/03 05:23:11;;;;;;;18.75;14.52;;;1.90;87.10;;;;;;5005625;28;20113;-72
2023/04/03 05:25:40;;;;;;;18.35;14.13;;;2.00;87.00;;;;;;4997157;28;20084;-72
2023/04/03 05:28:06;;;;;;;19.25;14.60;;;2.10;86.70;;;;;;5010931;28;20033;-74
2023/04/03 05:30:32;;;;;;;17.80;14.30;;;2.00;86.70;;;;;;5010706;28;20402;-72
2023/04/03 05:32:59;;;;;;;18.23;14.32;;;2.00;86.60;;;;;;5012176;28;20463;-73
2023/04/03 05:35:24;;;;;;;20.77;15.63;;;2.00;86.50;;;;;;5008334;28;20473;-72
2023/04/03 05:37:51;;;;;;;16.88;14.55;;;2.00;86.40;;;;;;5003425;28;20092;-72
2023/04/03 05:40:18;;;;;;;19.95;15.38;;;2.00;86.40;;;;;;5012596;28;20056;-73
2023/04/03 05:42:44;;;;;;;16.83;13.85;;;1.90;86.40;;;;;;5007508;28;20042;-73
2023/04/03 05:45:10;;;;;;;17.50;14.82;;;2.00;86.40;;;;;;5008379;28;20056;-73
2023/04/03 05:47:35;;;;;;;18.52;14.73;;;2.00;86.40;;;;;;5004332;28;20080;-72
2023/04/03 05:50:02;;;;;;;24.85;15.15;;;2.10;86.50;;;;;;5007695;28;20038;-73
2023/04/03 05:52:30;;;;;;;22.42;16.85;;;2.10;86.50;;;;;;5010299;28;20042;-72
2023/04/03 05:54:57;;;;;;;19.95;16.50;;;2.10;86.50;;;;;;5010347;28;21365;-74
2023/04/03 05:57:23;;;;;;;22.70;16.27;;;2.20;86.50;;;;;;5018904;28;20029;-73
2023/04/03 05:59:49;;;;;;;21.05;15.27;;;2.20;86.40;;;;;;5002670;28;20347;-72
2023/04/03 06:02:21;;;;;;;22.55;16.75;;;2.20;86.40;;;;;;5007309;28;20048;-73
2023/04/03 06:04:47;;;;;;;18.67;14.75;;;2.30;86.30;;;;;;5006429;28;20022;-72
2023/04/03 06:07:22;;;;;;;21.08;15.90;;;2.40;86.20;;;;;;5005642;28;20046;-72
2023/04/03 06:09:50;;;;;;;19.27;15.50;;;2.40;86.10;;;;;;5016600;28;20041;-72
2023/04/03 06:12:17;;;;;;;15.95;14.20;;;2.50;86.10;;;;;;5007833;28;20045;-75
2023/04/03 06:14:42;;;;;;;19.55;16.67;;;2.60;86.00;;;;;;4990860;28;20026;-72
2023/04/03 06:17:08;;;;;;;20.50;17.42;;;2.60;85.70;;;;;;4994370;28;20033;-72
2023/04/03 06:19:35;;;;;;;24.27;16.80;;;2.60;85.70;;;;;;5009921;28;20108;-72
2023/04/03 06:22:01;;;;;;;19.77;16.42;;;2.70;85.50;;;;;;5007563;28;20038;-73
2023/04/03 06:24:27;;;;;;;18.17;16.17;;;2.70;85.30;;;;;;5006452;28;20053;-73
2023/04/03 06:26:53;;;;;;;19.65;16.10;;;2.80;85.00;;;;;;5003315;28;20092;-72
2023/04/03 06:29:22;;;;;;;20.92;15.45;;;2.90;84.70;;;;;;4994795;28;20026;-76
2023/04/03 06:31:49;;;;;;;18.00;14.93;;;3.00;84.50;;;;;;5003119;28;20474;-73
2023/04/03 06:34:16;;;;;;;20.75;14.82;;;3.10;84.30;;;;;;5008978;28;20049;-73
2023/04/03 06:36:43;;;;;;;17.75;13.68;;;3.10;84.00;;;;;;5008931;28;20046;-73
2023/04/03 06:39:13;;;;;;;20.52;16.25;;;3.20;83.70;;;;;;4998034;28;20405;-74
2023/04/03 06:41:39;;;;;;;28.85;16.08;;;3.20;83.40;;;;;;5004839;28;20486;-73
2023/04/03 06:44:05;;;;;;;26.17;15.52;;;3.30;83.30;;;;;;5007431;28;20116;-75
2023/04/03 06:46:30;;;;;;;26.02;15.27;;;3.40;83.10;;;;;;5006176;28;20030;-74
2023/04/03 06:48:56;;;;;;;21.13;15.65;;;3.40;82.80;;;;;;5008291;28;20083;-73
2023/04/03 06:51:25;;;;;;;18.50;15.15;;;3.50;82.60;;;;;;5007328;28;20104;-76
2023/04/03 06:53:53;;;;;;;18.65;14.07;;;3.60;82.60;;;;;;4997596;28;20439;-79
2023/04/03 06:56:19;;;;;;;18.40;13.95;;;3.80;82.30;;;;;;5007908;28;20058;-79
2023/04/03 06:58:46;;;;;;;18.98;15.13;;;3.90;81.70;;;;;;5010185;28;20025;-79
2023/04/03 07:01:13;;;;;;;17.83;15.02;;;4.00;81.60;;;;;;5006256;28;20038;-81
2023/04/03 07:03:39;;;;;;;20.40;15.45;;;4.10;81.00;;;;;;5006270;28;20034;-79
2023/04/03 07:06:06;;;;;;;22.80;15.48;;;4.20;80.40;;;;;;5007555;28;20065;-80
2023/04/03 07:08:33;;;;;;;20.30;13.70;;;4.40;80.00;;;;;;4992112;28;20040;-81
2023/04/03 07:10:59;;;;;;;18.38;13.32;;;4.50;79.60;;;;;;5007116;28;20809;-81
2023/04/03 07:13:25;;;;;;;20.20;14.20;;;4.60;79.50;;;;;;5000405;28;20029;-81
2023/04/03 07:15:50;;;;;;;15.43;13.10;;;4.80;78.80;;;;;;5018830;28;20021;-79
2023/04/03 07:18:19;;;;;;;21.95;14.52;;;4.90;78.70;;;;;;5012294;28;20124;-80
2023/04/03 07:20:45;;;;;;;19.40;14.18;;;5.00;78.00;;;;;;5005618;28;20022;-78
2023/04/03 07:23:11;;;;;;;19.42;15.70;;;5.10;78.10;;;;;;5014084;28;20034;-83
2023/04/03 07:25:41;;;;;;;20.08;14.80;;;5.10;76.70;;;;;;4985821;28;20034;-80
2023/04/03 07:28:08;;;;;;;17.67;12.73;;;5.20;76.70;;;;;;4991768;28;20030;-80
2023/04/03 07:30:33;;;;;;;15.52;12.13;;;5.40;77.00;;;;;;5004545;28;20025;-79
2023/04/03 07:32:59;;;;;;;17.05;14.00;;;5.40;76.10;;;;;;4982886;28;20042;-79
2023/04/03 07:35:25;;;;;;;16.58;12.73;;;5.60;76.50;;;;;;5004704;28;20111;-76
2023/04/03 07:37:51;;;;;;;16.45;11.70;;;5.80;75.40;;;;;;5007131;28;20048;-76
2023/04/03 07:40:16;;;;;;;17.15;12.02;;;5.80;74.20;;;;;;5013594;28;20038;-79
2023/04/03 07:42:42;;;;;;;17.85;13.32;;;5.80;74.40;;;;;;5006021;28;20042;-76
2023/04/03 07:45:09;;;;;;;16.45;10.95;;;6.00;74.50;;;;;;5003410;28;20065;-77
2023/04/03 07:47:34;;;;;;;15.50;11.00;;;6.10;74.00;;;;;;5010923;28;20125;-76
2023/04/03 07:50:00;;;;;;;17.23;10.98;;;6.20;72.80;;;;;;5004448;28;20030;-77
2023/04/03 07:52:26;;;;;;;14.18;10.65;;;6.20;72.50;;;;;;5008984;28;20041;-77
2023/04/03 07:54:52;;;;;;;21.45;12.70;;;6.50;72.70;;;;;;5002212;28;20037;-80
2023/04/03 07:57:17;;;;;;;20.17;12.75;;;6.70;72.30;;;;;;4986423;28;20034;-77
2023/04/03 07:59:43;;;;;;;14.93;11.02;;;6.60;71.30;;;;;;5001593;28;20026;-77
2023/04/03 08:02:12;;;;;;;17.00;10.60;;;6.80;70.50;;;;;;5009314;28;20475;-80
2023/04/03 08:04:38;;;;;;;18.08;11.38;;;6.80;70.40;;;;;;5002337;28;20030;-79
2023/04/03 08:07:04;;;;;;;15.02;10.15;;;6.80;70.10;;;;;;5012411;28;20042;-80
2023/04/03 08:09:31;;;;;;;13.68;9.00;;;7.10;70.30;;;;;;5004661;28;20449;-80
2023/04/03 08:11:57;;;;;;;13.75;8.48;;;7.20;68.70;;;;;;5003107;28;20042;-80
2023/04/03 08:14:23;;;;;;;15.68;8.85;;;7.30;68.80;;;;;;5005976;28;20057;-80
2023/04/03 08:16:49;;;;;;;10.90;9.20;;;7.60;68.50;;;;;;5013302;28;20038;-80
2023/04/03 08:19:17;;;;;;;16.08;9.13;;;7.70;68.50;;;;;;5012735;28;20095;-77
2023/04/03 08:21:44;;;;;;;12.93;8.88;;;7.90;67.50;;;;;;5006681;28;20471;-79
2023/04/03 08:24:11;;;;;;;11.18;8.23;;;8.10;67.40;;;;;;5006068;28;20122;-80
2023/04/03 08:26:37;;;;;;;13.15;7.80;;;8.40;67.10;;;;;;4993952;28;20030;-78
2023/04/03 08:29:02;;;;;;;14.00;8.38;;;8.70;67.10;;;;;;5007193;28;20370;-78
2023/04/03 08:31:28;;;;;;;12.70;8.48;;;8.80;65.00;;;;;;5002677;28;20104;-80
2023/04/03 08:33:54;;;;;;;12.05;8.02;;;8.80;64.90;;;;;;5012547;28;20021;-80
2023/04/03 08:36:25;;;;;;;10.02;8.00;;;9.00;64.50;;;;;;5010905;28;20102;-82
2023/04/03 08:38:53;;;;;;;12.80;8.75;;;9.30;65.10;;;;;;5010927;28;20429;-83
2023/04/03 08:41:30;;;;;;;13.02;8.73;;;9.40;64.10;;;;;;5009038;28;20194;-82
2023/04/03 08:44:16;;;;;;;13.85;9.30;;;9.60;63.20;;;;;;5007312;28;20478;-83
2023/04/03 08:47:00;;;;;;;20.58;9.73;;;9.30;62.10;;;;;;5020718;28;20376;-81
2023/04/03 08:49:31;;;;;;;11.80;9.13;;;9.40;62.00;;;;;;5009800;28;20042;-80
2023/04/03 08:52:00;;;;;;;13.30;9.40;;;9.50;60.70;;;;;;5008364;28;20060;-82
2023/04/03 08:54:50;;;;;;;13.68;9.50;;;9.00;62.30;;;;;;5008809;28;20037;-79
2023/04/03 08:57:20;;;;;;;14.43;9.13;;;8.80;61.90;;;;;;5006511;28;20164;-79
2023/04/03 08:59:47;;;;;;;14.05;10.57;;;8.80;63.80;;;;;;5009856;28;20037;-79
2023/04/03 09:02:34;;;;;;;15.07;11.48;;;8.60;63.50;;;;;;5015700;28;20042;-77
2023/04/03 09:05:02;;;;;;;15.95;11.55;;;8.60;62.60;;;;;;4989403;28;20940;-78
2023/04/03 09:07:47;;;;;;;15.38;12.13;;;8.90;64.10;;;;;;4995190;28;20058;-77
2023/04/03 09:10:15;;;;;;;19.98;12.77;;;9.10;62.40;;;;;;4999397;28;20033;-77
2023/04/03 09:12:47;;;;;;;15.45;12.75;;;9.10;63.00;;;;;;5010515;28;20065;-77
2023/04/03 09:15:26;;;;;;;17.33;13.07;;;9.40;60.80;;;;;;5011075;28;20064;-77
2023/04/03 09:18:26;;;;;;;17.23;13.70;;;9.30;61.80;;;;;;5011262;28;20044;-77
2023/04/03 09:21:23;;;;;;;16.05;12.02;;;8.90;62.00;;;;;;5000073;28;20575;-79
2023/04/03 09:23:57;;;;;;;14.57;10.95;;;9.40;62.60;;;;;;5011691;28;20117;-78
2023/04/03 09:26:43;;;;;;;10.77;6.97;;;9.40;61.40;;;;;;5008717;28;20057;-79
2023/04/03 09:29:19;;;;;;;10.02;5.88;;;9.90;59.70;;;;;;5010474;28;20856;-82
2023/04/03 09:31:47;;;;;;;10.38;4.90;;;10.10;56.90;;;;;;5011642;28;20072;-79
2023/04/03 09:34:30;;;;;;;10.35;5.85;;;10.10;55.60;;;;;;4990962;28;20042;-82
2023/04/03 09:36:59;;;;;;;8.85;5.03;;;10.40;56.40;;;;;;5025665;28;20099;-82
2023/04/03 09:39:28;;;;;;;7.80;3.85;;;10.60;55.40;;;;;;5025478;28;20111;-80
2023/04/03 09:42:01;;;;;;;8.10;3.42;;;10.10;53.60;;;;;;5008942;28;20057;-80
2023/04/03 09:44:38;;;;;;;8.70;3.63;;;10.10;52.00;;;;;;5012174;28;20393;-79
2023/04/03 09:47:23;;;;;;;8.20;3.90;;;10.10;52.90;;;;;;5007986;28;20510;-77
2023/04/03 09:49:49;;;;;;;9.38;4.20;;;10.00;53.90;;;;;;5009525;28;20030;-82
2023/04/03 09:52:22;;;;;;;8.98;3.70;;;10.20;55.30;;;;;;4997531;28;20049;-78
2023/04/03 09:54:48;;;;;;;7.95;3.60;;;10.50;52.40;;;;;;5007654;28;20029;-79
2023/04/03 09:57:14;;;;;;;9.80;3.83;;;10.60;51.00;;;;;;5008055;28;20064;-82
2023/04/03 10:00:18;;;;;;;9.85;4.20;;;10.80;52.60;;;;;;5025249;28;20022;-82
2023/04/03 10:02:49;;;;;;;9.63;4.15;;;10.70;50.50;;;;;;5015225;28;20479;-78
2023/04/03 10:05:44;;;;;;;8.80;4.68;;;10.60;50.90;;;;;;5018012;28;20041;-78
2023/04/03 10:08:17;;;;;;;9.75;4.55;;;10.80;51.60;;;;;;4975634;28;20484;-80
2023/04/03 10:11:04;;;;;;;9.20;3.92;;;11.10;50.40;;;;;;5012874;28;20765;-78
2023/04/03 10:13:30;;;;;;;8.73;3.65;;;11.20;48.70;;;;;;5005408;28;20045;-78
2023/04/03 10:16:12;;;;;;;7.47;4.05;;;11.50;48.10;;;;;;4999534;28;20045;-79
2023/04/03 10:19:01;;;;;;;8.80;4.03;;;11.60;48.70;;;;;;4997986;28;20037;-80
2023/04/03 10:21:39;;;;;;;7.05;4.05;;;11.60;48.80;;;;;;5006659;28;20617;-81
2023/04/03 10:24:30;;;;;;;8.57;3.55;;;11.60;47.50;;;;;;5023333;28;20040;-79
2023/04/03 10:27:13;;;;;;;6.32;3.42;;;11.10;47.70;;;;;;5005767;28;20037;-78
2023/04/03 10:29:42;;;;;;;8.93;4.90;;;10.60;48.40;;;;;;5015233;28;20112;-77
2023/04/03 10:32:08;;;;;;;7.85;4.18;;;10.50;48.70;;;;;;5005708;28;20069;-76
2023/04/03 10:34:44;;;;;;;7.70;4.05;;;10.50;50.70;;;;;;5009287;28;20100;-77
2023/04/03 10:37:18;;;;;;;7.80;4.05;;;10.70;51.20;;;;;;5000702;28;20038;-79
2023/04/03 10:39:56;;;;;;;8.00;4.10;;;10.80;50.10;;;;;;5011468;28;20523;-77
2023/04/03 10:42:44;;;;;;;10.38;4.22;;;10.60;52.80;;;;;;5008059;28;20038;-79
2023/04/03 10:45:58;;;;;;;9.93;5.05;;;11.10;50.40;;;;;;5014238;28;20034;-79
2023/04/03 10:49:00;;;;;;;8.55;3.65;;;11.10;50.30;;;;;;4975277;28;20109;-79
2023/04/03 10:51:38;;;;;;;7.93;3.85;;;11.50;47.30;;;;;;4986386;28;20740;-79
2023/04/03 10:54:26;;;;;;;6.68;3.80;;;11.40;47.90;;;;;;5005766;28;20042;-78
2023/04/03 10:57:07;;;;;;;8.15;3.80;;;11.40;47.20;;;;;;5010487;28;20030;-77
2023/04/03 10:59:54;;;;;;;9.05;3.88;;;11.60;47.80;;;;;;5003108;28;20021;-76
2023/04/03 11:02:29;;;;;;;8.90;4.00;;;11.30;48.00;;;;;;5016416;28;20116;-77
2023/04/03 11:05:20;;;;;;;7.80;4.05;;;11.50;49.00;;;;;;5007529;28;20079;-78
2023/04/03 11:07:50;;;;;;;6.75;3.58;;;11.50;49.20;;;;;;4995682;28;20045;-78
2023/04/03 11:10:28;;;;;;;8.05;3.97;;;11.60;46.30;;;;;;4995850;28;20133;-77
2023/04/03 11:13:06;;;;;;;7.95;4.10;;;11.10;46.80;;;;;;5021471;28;20972;-76
2023/04/03 11:15:35;;;;;;;6.55;3.58;;;10.60;47.40;;;;;;5009241;28;20040;-78
2023/04/03 11:18:07;;;;;;;9.02;4.28;;;11.00;49.00;;;;;;4994334;28;20116;-77
2023/04/03 11:20:34;;;;;;;8.50;3.92;;;11.40;47.00;;;;;;5007738;28;20021;-75
2023/04/03 11:23:31;;;;;;;7.28;3.40;;;11.60;47.50;;;;;;4999313;28;20044;-77
2023/04/03 11:26:07;;;;;;;8.65;3.60;;;11.90;45.20;;;;;;5009463;28;20037;-82
2023/04/03 11:28:33;;;;;;;8.27;3.70;;;12.10;45.80;;;;;;5015006;28;20033;-78
2023/04/03 11:31:01;;;;;;;9.50;4.25;;;11.10;44.60;;;;;;5013619;28;20029;-80
2023/04/03 11:33:33;;;;;;;8.32;3.90;;;10.60;46.70;;;;;;5007985;28;20497;-79
2023/04/03 11:36:22;;;;;;;8.63;3.30;;;10.30;45.80;;;;;;5007223;28;20117;-76
2023/04/03 11:38:50;;;;;;;8.07;3.20;;;10.80;47.90;;;;;;5011486;28;20030;-74
2023/04/03 11:41:24;;;;;;;8.35;3.40;;;11.10;44.30;;;;;;5003003;28;20037;-83
2023/04/03 11:44:26;;;;;;;8.18;2.97;;;11.10;46.20;;;;;;5012443;28;20068;-79
2023/04/03 11:46:57;;;;;;;7.93;2.90;;;11.60;44.40;;;;;;5011874;28;20046;-81
2023/04/03 11:49:53;;;;;;;6.88;2.55;;;11.40;43.60;;;;;;5005678;28;20058;-81
2023/04/03 11:52:42;;;;;;;5.85;2.92;;;11.80;44.40;;;;;;5010481;28;20037;-81
2023/04/03 11:55:21;;;;;;;6.90;3.03;;;12.10;44.10;;;;;;5015864;28;20018;-81
2023/04/03 11:57:58;;;;;;;7.05;3.38;;;11.90;43.50;;;;;;5015778;28;20096;-81
2023/04/03 12:00:50;;;;;;;7.80;2.92;;;11.20;44.40;;;;;;5012292;28;20025;-79
2023/04/03 12:03:26;;;;;;;7.75;3.47;;;11.30;46.20;;;;;;4998072;28;20042;-79
2023/04/03 12:06:07;;;;;;;6.60;3.13;;;11.60;46.80;;;;;;5006148;28;20032;-79
2023/04/03 12:08:32;;;;;;;6.90;3.22;;;12.20;45.90;;;;;;5010159;28;20080;-80
2023/04/03 12:11:10;;;;;;;6.95;2.80;;;12.30;44.50;;;;;;5014398;28;20033;-78
2023/04/03 12:13:39;;;;;;;5.47;2.72;;;12.70;42.40;;;;;;5013570;28;20580;-79
2023/04/03 12:16:29;;;;;;;6.43;2.83;;;12.60;42.00;;;;;;5016544;28;20091;-79
2023/04/03 12:19:03;;;;;;;7.72;2.95;;;12.60;42.30;;;;;;5013663;28;20033;-80
2023/04/03 12:21:51;;;;;;;5.35;2.80;;;12.80;42.10;;;;;;5005168;28;20056;-78
2023/04/03 12:24:17;;;;;;;6.25;3.17;;;12.20;40.90;;;;;;5012207;28;20065;-80
2023/04/03 12:26:50;;;;;;;7.10;2.58;;;11.90;40.70;;;;;;5016562;28;20091;-78
2023/04/03 12:29:32;;;;;;;6.93;2.92;;;11.40;41.10;;;;;;5014466;28;20025;-80
2023/04/03 12:32:07;;;;;;;5.53;2.75;;;11.30;42.70;;;;;;4991903;28;20105;-80
2023/04/03 12:34:41;;;;;;;7.28;2.28;;;11.20;42.70;;;;;;5004651;28;20105;-80
2023/04/03 12:37:31;;;;;;;6.55;2.88;;;11.60;42.30;;;;;;5018767;28;20505;-79
2023/04/03 12:40:06;;;;;;;6.82;2.75;;;11.60;38.50;;;;;;5016446;28;20023;-79
2023/04/03 12:43:05;;;;;;;7.25;2.20;;;12.00;40.80;;;;;;5011066;28;20486;-80
2023/04/03 12:46:00;;;;;;;6.40;2.65;;;12.30;40.20;;;;;;5017124;28;20125;-79
2023/04/03 12:48:29;;;;;;;8.93;3.22;;;12.50;40.00;;;;;;5013082;28;20188;-79
2023/04/03 12:50:57;;;;;;;6.97;2.47;;;12.20;39.20;;;;;;5012529;28;20033;-79
2023/04/03 12:53:30;;;;;;;7.65;3.10;;;11.80;40.50;;;;;;5003960;28;20046;-81
2023/04/03 12:56:18;;;;;;;6.00;2.47;;;12.10;41.60;;;;;;5022333;28;20033;-80